Time;durP1;ratioP1;P1;durP2;ratioP2;P2;SDS_P1;SDS_P2;PMS_P1;PMS_P2;Temp;Humidity;BMP_temperature;BMP_pressure;BME280_temperature;BME280_humidity;BME280_pressure;Samples;Min_cycle;Max_cycle;Signal;HPM_P1;HPM_P2
2023/07/11 00:01:59;;;;;;;9.57;4.47;;;;;;;19.24;59.64;94386.50;5061873;28;20266;-78
2023/07/11 00:04:25;;;;;;;9.73;4.35;;;;;;;19.19;58.34;94375.97;5063585;28;20017;-78
2023/07/11 00:06:52;;;;;;;10.45;5.03;;;;;;;19.19;59.11;94384.06;5065924;28;20028;-78
2023/07/11 00:09:19;;;;;;;8.85;4.40;;;;;;;19.16;59.54;94387.50;5065883;28;20391;-78
2023/07/11 00:11:44;;;;;;;11.77;4.70;;;;;;;19.14;59.41;94384.38;5065835;28;20067;-78
2023/07/11 00:14:11;;;;;;;5.25;4.00;;;;;;;19.16;59.22;94387.50;5065670;28;20017;-78
2023/07/11 00:16:37;;;;;;;6.70;4.50;;;;;;;19.17;58.24;94395.25;5065651;28;20019;-78
2023/07/11 00:19:03;;;;;;;11.20;4.13;;;;;;;19.20;58.74;94405.34;5066005;28;20017;-78
2023/07/11 00:21:29;;;;;;;7.25;4.57;;;;;;;19.22;58.64;94396.88;5065621;28;20047;-78
2023/07/11 00:24:03;;;;;;;6.25;4.40;;;;;;;19.20;58.81;94404.56;5065854;28;20231;-78
2023/07/11 00:26:34;;;;;;;9.95;5.60;;;;;;;19.22;59.12;94394.19;5065539;28;20197;-78
2023/07/11 00:29:19;;;;;;;10.98;4.60;;;;;;;19.16;59.58;94388.28;5066080;28;20021;-78
2023/07/11 00:31:44;;;;;;;21.55;5.35;;;;;;;19.10;60.26;94391.63;5064672;28;20088;-78
2023/07/11 00:34:10;;;;;;;9.20;4.97;;;;;;;19.02;60.61;94388.75;5065599;28;20036;-78
2023/07/11 00:36:36;;;;;;;14.85;5.07;;;;;;;19.00;61.27;94385.63;5065943;28;20214;-79
2023/07/11 00:39:03;;;;;;;11.02;4.70;;;;;;;18.99;61.46;94388.66;5066037;28;20322;-79
2023/07/11 00:41:28;;;;;;;18.67;5.80;;;;;;;18.91;61.92;94382.34;5065662;28;20025;-79
2023/07/11 00:43:54;;;;;;;11.13;4.97;;;;;;;18.88;62.25;94366.06;5065321;28;20330;-78
2023/07/11 00:46:20;;;;;;;17.08;5.75;;;;;;;18.80;62.90;94368.59;5065160;28;20029;-79
2023/07/11 00:48:59;;;;;;;17.02;5.03;;;;;;;18.79;63.04;94369.75;5065394;28;20104;-77
2023/07/11 00:51:30;;;;;;;13.68;5.38;;;;;;;18.72;63.29;94364.16;5065469;28;20325;-78
2023/07/11 00:53:57;;;;;;;16.40;5.22;;;;;;;18.71;63.33;94364.53;5065284;28;20400;-79
2023/07/11 00:56:25;;;;;;;7.72;4.72;;;;;;;18.68;63.75;94357.09;5065332;28;20021;-79
2023/07/11 00:58:52;;;;;;;10.32;4.60;;;;;;;18.62;63.99;94354.69;5065241;28;20036;-77
2023/07/11 01:01:19;;;;;;;12.98;5.18;;;;;;;18.61;64.00;94363.91;5065323;28;20200;-77
2023/07/11 01:03:45;;;;;;;11.43;4.72;;;;;;;18.64;64.16;94362.44;5065275;28;20025;-78
2023/07/11 01:06:13;;;;;;;7.25;4.78;;;;;;;18.57;64.17;94357.66;5064993;28;20203;-79
2023/07/11 01:08:39;;;;;;;7.88;4.32;;;;;;;18.51;63.39;94367.16;5064746;28;20086;-78
2023/07/11 01:11:05;;;;;;;7.97;4.72;;;;;;;18.53;62.73;94373.00;5065022;28;20033;-79
2023/07/11 01:13:30;;;;;;;13.00;5.55;;;;;;;18.50;63.16;94364.81;5064992;28;20025;-79
2023/07/11 01:15:55;;;;;;;8.07;5.75;;;;;;;18.49;63.37;94369.41;5063962;28;20373;-78
2023/07/11 01:18:21;;;;;;;14.07;5.32;;;;;;;18.49;63.14;94368.66;5064628;28;20028;-78
2023/07/11 01:20:46;;;;;;;9.75;5.68;;;;;;;18.43;63.96;94362.72;5064445;28;20024;-78
2023/07/11 01:23:12;;;;;;;10.23;5.50;;;;;;;18.40;64.10;94360.75;5064312;28;20028;-78
2023/07/11 01:25:38;;;;;;;12.02;5.88;;;;;;;18.39;64.59;94361.88;5064591;28;20070;-78
2023/07/11 01:28:04;;;;;;;8.10;4.70;;;;;;;18.43;64.72;94362.72;5064754;28;20028;-78
2023/07/11 01:30:29;;;;;;;12.95;6.53;;;;;;;18.44;64.52;94361.59;5064503;28;20319;-79
2023/07/11 01:32:55;;;;;;;9.88;5.07;;;;;;;18.38;64.90;94363.00;5064302;28;20021;-77
2023/07/11 01:35:21;;;;;;;6.97;5.47;;;;;;;18.38;64.73;94366.47;5064157;28;20029;-77
2023/07/11 01:37:46;;;;;;;12.38;6.70;;;;;;;18.36;65.29;94368.75;5064240;28;20037;-78
2023/07/11 01:40:12;;;;;;;12.60;6.00;;;;;;;18.35;65.42;94363.69;5064178;28;20048;-77
2023/07/11 01:42:39;;;;;;;12.23;6.45;;;;;;;18.33;65.51;94360.56;5064581;28;20021;-77
2023/07/11 01:45:05;;;;;;;12.48;6.43;;;;;;;18.26;66.13;94358.50;5064465;28;20025;-77
2023/07/11 01:47:31;;;;;;;9.82;5.88;;;;;;;18.20;67.08;94360.66;5064326;28;20219;-77
2023/07/11 01:49:56;;;;;;;14.32;6.43;;;;;;;18.18;67.34;94362.94;5063950;28;20044;-77
2023/07/11 01:52:23;;;;;;;11.02;6.30;;;;;;;18.08;67.62;94357.28;5064170;28;20028;-78
2023/07/11 01:54:50;;;;;;;11.80;5.82;;;;;;;18.09;67.89;94350.75;5063750;28;20044;-78
2023/07/11 01:57:16;;;;;;;10.88;5.93;;;;;;;18.06;68.16;94349.53;5064160;28;20047;-79
2023/07/11 01:59:42;;;;;;;12.40;6.38;;;;;;;18.06;68.35;94343.34;5063742;28;20024;-78
2023/07/11 02:02:08;;;;;;;17.92;6.38;;;;;;;18.01;68.66;94339.00;5063783;28;20020;-78
2023/07/11 02:04:35;;;;;;;9.18;5.93;;;;;;;17.95;69.10;94337.69;5064057;28;20021;-77
2023/07/11 02:07:01;;;;;;;11.05;5.63;;;;;;;17.92;69.22;94335.69;5064009;28;20083;-78
2023/07/11 02:09:27;;;;;;;11.43;5.82;;;;;;;17.94;70.02;94341.53;5063834;28;20240;-78
2023/07/11 02:11:52;;;;;;;12.20;6.00;;;;;;;17.88;69.77;94332.13;5063756;28;20039;-78
2023/07/11 02:14:19;;;;;;;10.52;6.28;;;;;;;17.81;70.37;94338.88;5063543;28;20024;-78
2023/07/11 02:16:49;;;;;;;11.50;5.78;;;;;;;17.79;70.19;94338.44;5063627;28;20021;-78
2023/07/11 02:19:16;;;;;;;11.65;5.80;;;;;;;17.77;70.32;94343.41;5063594;28;20040;-79
2023/07/11 02:21:42;;;;;;;11.90;6.43;;;;;;;17.73;70.24;94342.53;5063500;28;20048;-78
2023/07/11 02:24:10;;;;;;;10.02;6.18;;;;;;;17.72;69.97;94350.94;5063234;28;20047;-77
2023/07/11 02:26:36;;;;;;;10.95;6.90;;;;;;;17.74;70.04;94354.09;5063266;28;20033;-77
2023/07/11 02:29:02;;;;;;;17.60;6.45;;;;;;;17.76;69.48;94358.00;5063690;28;20040;-77
2023/07/11 02:31:28;;;;;;;12.48;7.03;;;;;;;17.65;69.47;94357.72;5063176;28;20218;-78
2023/07/11 02:33:53;;;;;;;12.95;7.85;;;;;;;17.59;70.30;94352.94;5063139;28;20036;-78
2023/07/11 02:36:20;;;;;;;10.27;7.72;;;;;;;17.55;70.32;94357.44;5063251;28;20029;-78
2023/07/11 02:38:45;;;;;;;13.23;8.52;;;;;;;17.56;70.61;94354.41;5063192;28;20040;-78
2023/07/11 02:41:10;;;;;;;23.10;7.57;;;;;;;17.55;70.78;94352.84;5063127;28;20346;-78
2023/07/11 02:43:36;;;;;;;16.77;7.75;;;;;;;17.54;71.38;94353.94;5063334;28;20040;-78
2023/07/11 02:46:01;;;;;;;17.10;7.28;;;;;;;17.50;71.38;94347.69;5063152;28;20070;-79
2023/07/11 02:48:28;;;;;;;31.38;7.90;;;;;;;17.49;71.91;94353.44;5062854;28;20033;-79
2023/07/11 02:50:54;;;;;;;25.80;7.43;;;;;;;17.54;71.71;94348.56;5062939;28;20346;-79
2023/07/11 02:53:19;;;;;;;18.33;7.72;;;;;;;17.51;71.82;94338.50;5062652;28;20099;-78
2023/07/11 02:55:45;;;;;;;15.20;7.13;;;;;;;17.47;71.87;94340.31;5062817;28;20096;-78
2023/07/11 02:58:10;;;;;;;14.85;7.13;;;;;;;17.46;72.28;94344.13;5063116;28;20024;-78
2023/07/11 03:00:36;;;;;;;10.48;6.35;;;;;;;17.49;72.42;94342.66;5063072;28;20214;-78
2023/07/11 03:03:02;;;;;;;13.63;7.65;;;;;;;17.51;72.61;94341.19;5061788;28;20196;-78
2023/07/11 03:05:27;;;;;;;11.23;7.05;;;;;;;17.49;72.25;94337.28;5062951;28;20036;-78
2023/07/11 03:07:53;;;;;;;15.38;7.30;;;;;;;17.42;72.40;94345.94;5062520;28;20049;-79
2023/07/11 03:10:18;;;;;;;18.55;7.95;;;;;;;17.43;72.73;94345.59;5062783;28;20029;-78
2023/07/11 03:12:43;;;;;;;14.75;5.93;;;;;;;17.46;72.84;94341.41;5062808;28;20215;-78
2023/07/11 03:15:09;;;;;;;17.58;6.43;;;;;;;17.43;72.62;94350.22;5062746;28;20035;-77
2023/07/11 03:17:34;;;;;;;13.25;6.93;;;;;;;17.42;72.34;94344.03;5062970;28;20025;-78
2023/07/11 03:20:00;;;;;;;8.27;5.80;;;;;;;17.42;72.44;94345.94;5062816;28;20039;-78
2023/07/11 03:22:26;;;;;;;14.52;6.97;;;;;;;17.49;72.58;94348.06;5062481;28;20025;-78
2023/07/11 03:24:52;;;;;;;12.95;6.60;;;;;;;17.46;72.50;94352.19;5061674;28;20338;-78
2023/07/11 03:27:17;;;;;;;14.52;7.32;;;;;;;17.48;72.28;94362.63;5061360;28;20025;-77
2023/07/11 03:29:43;;;;;;;17.25;6.93;;;;;;;17.50;72.13;94363.09;5061009;28;20020;-78
2023/07/11 03:32:09;;;;;;;12.57;6.70;;;;;;;17.44;72.37;94363.34;5061798;28;20102;-77
2023/07/11 03:34:34;;;;;;;15.98;7.20;;;;;;;17.49;72.11;94366.91;5062273;28;20025;-77
2023/07/11 03:37:00;;;;;;;20.63;7.25;;;;;;;17.54;72.25;94375.50;5062394;28;20139;-77
2023/07/11 03:39:26;;;;;;;20.77;8.07;;;;;;;17.54;72.23;94370.13;5063766;28;20021;-78
2023/07/11 03:41:51;;;;;;;39.08;9.40;;;;;;;17.60;72.51;94370.66;5066561;28;20048;-78
2023/07/11 03:44:17;;;;;;;26.02;8.50;;;;;;;17.61;72.69;94373.03;5066493;28;20021;-78
2023/07/11 03:46:42;;;;;;;24.17;8.02;;;;;;;17.69;72.67;94368.59;5066162;28;20092;-77
2023/07/11 03:49:09;;;;;;;26.30;9.27;;;;;;;17.71;73.10;94366.34;5066150;28;20223;-77
2023/07/11 03:51:34;;;;;;;39.67;8.98;;;;;;;17.75;73.36;94361.84;5066475;28;20043;-77
2023/07/11 03:54:00;;;;;;;27.27;7.80;;;;;;;17.77;73.31;94356.09;5065897;28;20040;-77
2023/07/11 03:56:27;;;;;;;21.65;8.60;;;;;;;17.77;73.36;94356.88;5066051;28;20252;-77
2023/07/11 03:58:53;;;;;;;20.63;8.15;;;;;;;17.79;73.44;94356.53;5066101;28;20286;-78
2023/07/11 04:01:19;;;;;;;21.48;8.00;;;;;;;17.89;72.80;94356.06;5065732;28;20021;-78
2023/07/11 04:03:45;;;;;;;18.63;7.68;;;;;;;17.95;72.51;94356.56;5066017;28;20062;-78
2023/07/11 04:06:10;;;;;;;20.67;7.68;;;;;;;17.98;72.48;94353.97;5065840;28;20037;-77
2023/07/11 04:08:36;;;;;;;19.20;9.13;;;;;;;18.06;72.32;94359.53;5066109;28;20025;-78
2023/07/11 04:11:02;;;;;;;14.40;8.18;;;;;;;18.11;72.29;94357.34;5065865;28;20072;-78
2023/07/11 04:13:27;;;;;;;14.80;8.20;;;;;;;18.18;71.86;94352.13;5065737;28;20086;-77
2023/07/11 04:15:53;;;;;;;11.88;7.60;;;;;;;18.30;71.31;94353.16;5065702;28;20319;-77
2023/07/11 04:18:18;;;;;;;13.65;7.88;;;;;;;18.38;70.90;94354.91;5065816;28;20017;-78
2023/07/11 04:20:45;;;;;;;13.10;8.00;;;;;;;18.38;71.13;94365.72;5065642;28;20211;-78
2023/07/11 04:23:14;;;;;;;15.98;8.48;;;;;;;18.43;70.03;94366.19;5064235;28;20031;-79
2023/07/11 04:25:40;;;;;;;22.38;9.48;;;;;;;18.51;70.09;94380.66;5065512;28;20105;-78
2023/07/11 04:28:05;;;;;;;23.60;9.73;;;;;;;18.54;70.69;94379.97;5065623;28;20025;-78
2023/07/11 04:30:31;;;;;;;13.88;8.23;;;;;;;18.54;70.57;94379.97;5065566;28;20088;-78
2023/07/11 04:32:57;;;;;;;15.05;8.23;;;;;;;18.53;69.25;94389.19;5065567;28;20234;-78
2023/07/11 04:35:22;;;;;;;32.33;9.45;;;;;;;18.54;69.90;94392.66;5065399;28;20326;-79
2023/07/11 04:37:48;;;;;;;18.85;8.75;;;;;;;18.58;70.02;94391.63;5065281;28;20191;-79
2023/07/11 04:40:15;;;;;;;15.75;8.38;;;;;;;18.61;69.37;94396.31;5065229;28;20033;-80
2023/07/11 04:42:41;;;;;;;19.75;9.23;;;;;;;18.63;68.55;94394.03;5065117;28;20040;-80
2023/07/11 04:45:08;;;;;;;14.02;8.55;;;;;;;18.69;68.15;94396.50;5065230;28;20311;-79
2023/07/11 04:47:33;;;;;;;16.58;8.35;;;;;;;18.68;68.88;94392.97;5065313;28;20323;-78
2023/07/11 04:49:59;;;;;;;14.63;9.23;;;;;;;18.70;69.07;94395.34;5064677;28;20035;-80
2023/07/11 04:52:25;;;;;;;19.98;9.82;;;;;;;18.65;69.40;94399.09;5064106;28;20070;-79
2023/07/11 04:54:51;;;;;;;21.25;9.48;;;;;;;18.71;69.80;94399.63;5064819;28;20273;-79
2023/07/11 04:57:16;;;;;;;23.60;9.80;;;;;;;18.77;69.21;94403.63;5064839;28;20036;-79
2023/07/11 04:59:42;;;;;;;19.63;9.57;;;;;;;18.81;69.04;94396.41;5064921;28;20095;-79
2023/07/11 05:02:07;;;;;;;17.63;8.82;;;;;;;18.88;69.09;94384.97;5064821;28;20349;-79
2023/07/11 05:04:33;;;;;;;24.17;10.32;;;;;;;19.00;69.17;94393.72;5064990;28;20016;-79
2023/07/11 05:07:00;;;;;;;28.60;9.35;;;;;;;19.07;68.88;94392.31;5064571;28;20027;-79
2023/07/11 05:09:27;;;;;;;22.38;10.05;;;;;;;19.15;68.20;94396.72;5064706;28;20218;-80
2023/07/11 05:11:53;;;;;;;19.40;9.35;;;;;;;19.28;67.98;94398.16;5064676;28;20203;-79
2023/07/11 05:14:18;;;;;;;19.75;9.23;;;;;;;19.34;68.11;94401.38;5064564;28;20028;-79
2023/07/11 05:16:44;;;;;;;23.50;10.60;;;;;;;19.41;67.87;94402.28;5064229;28;20025;-79
2023/07/11 05:19:09;;;;;;;24.52;9.77;;;;;;;19.48;67.50;94398.16;5064410;28;20016;-79
2023/07/11 05:21:35;;;;;;;30.63;10.90;;;;;;;19.52;67.12;94388.19;5064657;28;20051;-79
2023/07/11 05:24:01;;;;;;;21.45;9.77;;;;;;;19.51;66.49;94405.56;5064278;28;20241;-79
2023/07/11 05:26:27;;;;;;;17.20;9.70;;;;;;;19.54;66.30;94402.94;5064381;28;20035;-79
2023/07/11 05:28:53;;;;;;;21.58;9.73;;;;;;;19.51;65.90;94409.06;5064357;28;20016;-79
2023/07/11 05:31:18;;;;;;;24.55;9.85;;;;;;;19.49;65.50;94405.16;5063987;28;20024;-78
2023/07/11 05:33:44;;;;;;;21.15;10.93;;;;;;;19.45;66.24;94399.66;5064107;28;20017;-79
2023/07/11 05:36:31;;;;;;;18.75;9.50;;;;;;;19.55;66.53;94407.19;5064209;28;20059;-79
2023/07/11 05:39:15;;;;;;;19.40;11.00;;;;;;;19.62;66.22;94406.53;5064179;28;20057;-79
2023/07/11 05:41:49;;;;;;;21.42;10.65;;;;;;;19.63;66.70;94406.19;5064174;28;20196;-78
2023/07/11 05:44:15;;;;;;;23.58;9.40;;;;;;;19.71;66.79;94399.03;5064109;28;20035;-79
2023/07/11 05:46:41;;;;;;;22.23;10.68;;;;;;;19.78;66.92;94401.88;5063710;28;20036;-79
2023/07/11 05:49:07;;;;;;;27.90;10.02;;;;;;;19.89;66.30;94398.59;5064048;28;20027;-78
2023/07/11 05:51:33;;;;;;;24.63;10.45;;;;;;;19.89;65.80;94404.00;5064020;28;20201;-78
2023/07/11 05:53:59;;;;;;;30.50;10.48;;;;;;;19.91;66.32;94405.19;5063664;28;20052;-79
2023/07/11 05:56:25;;;;;;;24.60;11.73;;;;;;;19.96;66.04;94406.81;5063525;28;20047;-79
2023/07/11 05:58:52;;;;;;;28.00;10.95;;;;;;;20.00;66.08;94404.97;5063680;28;20017;-79
2023/07/11 06:01:22;;;;;;;23.42;10.18;;;;;;;20.09;65.77;94394.69;5063691;28;20195;-78
2023/07/11 06:04:01;;;;;;;17.60;10.35;;;;;;;20.07;65.49;94397.00;5063239;28;20318;-79
2023/07/11 06:06:26;;;;;;;20.30;11.27;;;;;;;20.13;65.47;94395.53;5063486;28;20036;-78
2023/07/11 06:08:52;;;;;;;20.15;9.90;;;;;;;20.24;65.07;94393.78;5063529;28;20252;-80
2023/07/11 06:11:17;;;;;;;20.60;10.38;;;;;;;20.20;65.55;94392.94;5063412;28;20103;-78
2023/07/11 06:13:42;;;;;;;21.98;10.50;;;;;;;20.32;65.19;94397.41;5062276;28;20025;-79
2023/07/11 06:16:14;;;;;;;19.17;9.98;;;;;;;20.34;64.91;94402.47;5063260;28;20049;-80
2023/07/11 06:18:40;;;;;;;25.98;10.82;;;;;;;20.43;65.26;94408.41;5063419;28;20268;-78
2023/07/11 06:21:08;;;;;;;26.80;10.50;;;;;;;20.54;64.76;94409.38;5063483;28;20056;-78
2023/07/11 06:23:34;;;;;;;21.60;10.75;;;;;;;20.65;64.01;94409.53;5063425;28;20096;-75
2023/07/11 06:25:59;;;;;;;18.98;9.60;;;;;;;20.79;63.11;94400.88;5063374;28;20021;-76
2023/07/11 06:28:26;;;;;;;16.75;10.00;;;;;;;20.89;61.89;94402.94;5063263;28;20327;-76
2023/07/11 06:30:55;;;;;;;21.15;9.25;;;;;;;20.98;62.02;94406.16;5063299;28;20088;-76
2023/07/11 06:33:22;;;;;;;21.15;10.07;;;;;;;20.95;63.02;94412.31;5063024;28;20031;-76
2023/07/11 06:35:49;;;;;;;22.10;10.13;;;;;;;21.02;62.56;94404.31;5063210;28;20043;-75
2023/07/11 06:38:15;;;;;;;25.10;10.88;;;;;;;21.10;62.77;94404.38;5063104;28;20039;-76
2023/07/11 06:40:45;;;;;;;17.48;10.25;;;;;;;21.13;61.70;94395.53;5063097;28;20322;-78
2023/07/11 06:43:11;;;;;;;29.75;10.20;;;;;;;21.24;61.74;94388.31;5062928;28;20021;-77
2023/07/11 06:45:36;;;;;;;16.08;9.98;;;;;;;21.37;61.33;94386.94;5063074;28;20215;-75
2023/07/11 06:48:02;;;;;;;17.60;9.75;;;;;;;21.37;61.66;94395.06;5063129;28;20032;-76
2023/07/11 06:50:27;;;;;;;18.95;9.25;;;;;;;21.33;61.65;94396.97;5062946;28;20055;-76
2023/07/11 06:52:52;;;;;;;24.52;10.35;;;;;;;21.44;61.90;94388.97;5061456;28;20341;-76
2023/07/11 06:55:18;;;;;;;28.63;9.73;;;;;;;21.49;61.94;94388.63;5062691;28;20035;-79
2023/07/11 06:57:43;;;;;;;24.58;9.60;;;;;;;21.61;61.51;94393.03;5062789;28;20084;-75
2023/07/11 07:00:09;;;;;;;19.25;9.00;;;;;;;21.61;61.88;94395.75;5062653;28;20104;-75
2023/07/11 07:02:35;;;;;;;22.70;9.00;;;;;;;21.69;60.60;94400.09;5062843;28;20021;-75
2023/07/11 07:05:00;;;;;;;14.50;8.60;;;;;;;21.83;59.96;94396.78;5062723;28;20227;-75
2023/07/11 07:07:25;;;;;;;19.27;9.60;;;;;;;21.86;58.89;94396.03;5062551;28;20033;-74
2023/07/11 07:09:51;;;;;;;15.35;9.45;;;;;;;21.96;58.87;94386.44;5062557;28;20051;-74
2023/07/11 07:12:16;;;;;;;24.65;9.00;;;;;;;22.00;59.39;94396.19;5062522;28;20319;-74
2023/07/11 07:14:42;;;;;;;27.00;9.07;;;;;;;22.13;60.13;94396.69;5061776;28;20020;-73
2023/07/11 07:17:07;;;;;;;22.15;9.38;;;;;;;22.30;59.09;94397.25;5062719;28;20021;-75
2023/07/11 07:19:32;;;;;;;24.20;9.48;;;;;;;22.39;58.29;94392.31;5062673;28;20230;-75
2023/07/11 07:21:58;;;;;;;12.52;8.95;;;;;;;22.45;57.04;94398.94;5062136;28;20051;-75
2023/07/11 07:24:24;;;;;;;16.45;9.38;;;;;;;22.56;57.32;94391.66;5062248;28;20092;-75
2023/07/11 07:26:49;;;;;;;17.40;10.27;;;;;;;22.64;56.74;94392.50;5062207;28;20028;-75
2023/07/11 07:29:15;;;;;;;20.70;9.88;;;;;;;22.73;56.96;94389.44;5062140;28;20262;-75
2023/07/11 07:31:40;;;;;;;20.60;9.15;;;;;;;22.83;58.95;94399.59;5061185;28;20035;-75
2023/07/11 07:34:07;;;;;;;16.48;8.93;;;;;;;22.90;57.34;94396.13;5094679;28;20095;-74
2023/07/11 07:36:35;;;;;;;28.20;10.68;;;;;;;22.93;57.19;94388.00;5062529;28;20025;-75
2023/07/11 07:39:01;;;;;;;19.50;10.00;;;;;;;23.02;57.26;94380.34;5062257;28;20096;-78
2023/07/11 07:41:27;;;;;;;31.27;8.88;;;;;;;23.19;57.09;94384.31;5062504;28;20381;-77
2023/07/11 07:43:53;;;;;;;16.83;9.85;;;;;;;23.34;57.24;94374.28;5062504;28;20028;-78
2023/07/11 07:46:19;;;;;;;22.35;10.68;;;;;;;23.38;57.07;94372.34;5062270;28;20035;-78
2023/07/11 07:48:45;;;;;;;21.75;8.93;;;;;;;23.53;56.79;94375.13;5062411;28;20044;-78
2023/07/11 07:54:30;;;;;;;30.70;8.27;;;;;;;23.77;55.46;94371.75;5072452;28;20096;-77
2023/07/11 07:56:56;;;;;;;21.98;8.38;;;;;;;23.89;55.64;94375.25;5061036;28;20336;-77
2023/07/11 07:59:21;;;;;;;17.85;8.30;;;;;;;23.99;55.21;94366.34;5062068;28;20025;-77
2023/07/11 08:01:47;;;;;;;18.63;7.43;;;;;;;24.12;54.88;94369.47;5061033;28;20074;-76
2023/07/11 08:04:12;;;;;;;20.85;7.03;;;;;;;24.28;53.31;94380.00;5062214;28;20044;-75
2023/07/11 08:06:38;;;;;;;18.88;7.40;;;;;;;24.40;54.73;94374.16;5062055;28;20033;-73
2023/07/11 08:09:03;;;;;;;15.25;8.07;;;;;;;24.55;53.63;94372.25;5062252;28;20066;-74
2023/07/11 08:11:29;;;;;;;13.80;6.47;;;;;;;24.71;53.65;94363.66;5062101;28;20032;-75
2023/07/11 08:13:54;;;;;;;12.25;7.13;;;;;;;24.82;52.76;94358.97;5062205;28;20029;-74
2023/07/11 08:16:20;;;;;;;15.40;7.15;;;;;;;24.99;51.93;94365.56;5062160;28;20033;-75
2023/07/11 08:18:45;;;;;;;14.40;6.40;;;;;;;25.08;51.66;94359.72;5061909;28;20024;-75
2023/07/11 08:21:11;;;;;;;25.23;6.78;;;;;;;25.21;49.14;94364.38;5062287;28;20028;-76
2023/07/11 08:23:37;;;;;;;20.52;6.45;;;;;;;25.26;50.03;94363.19;5062251;28;20024;-75
2023/07/11 08:26:02;;;;;;;11.82;4.90;;;;;;;25.31;46.84;94370.97;5064401;28;20041;-75
2023/07/11 08:28:28;;;;;;;8.77;4.50;;;;;;;25.46;45.05;94360.00;5065390;28;20024;-75
2023/07/11 08:30:53;;;;;;;7.47;4.35;;;;;;;25.58;44.21;94365.78;5065495;28;20255;-72
2023/07/11 08:33:18;;;;;;;11.25;4.20;;;;;;;25.61;45.10;94370.47;5065580;28;20036;-73
2023/07/11 08:35:44;;;;;;;10.68;4.72;;;;;;;25.69;43.63;94360.28;5065565;28;20370;-73
2023/07/11 08:38:11;;;;;;;12.30;4.28;;;;;;;25.80;42.69;94366.47;5065416;28;20254;-73
2023/07/11 08:40:43;;;;;;;6.78;3.50;;;;;;;25.82;42.27;94369.56;5064150;28;20066;-73
2023/07/11 08:43:26;;;;;;;9.25;4.47;;;;;;;25.83;43.76;94365.66;5065417;28;20029;-73
2023/07/11 08:46:14;;;;;;;6.90;4.20;;;;;;;25.79;43.74;94364.91;5065212;28;20036;-72
2023/07/11 08:48:49;;;;;;;7.90;4.53;;;;;;;25.87;42.20;94365.66;5065104;28;20334;-72
2023/07/11 08:51:26;;;;;;;10.13;4.65;;;;;;;25.96;45.04;94367.97;5065114;28;20046;-73
2023/07/11 08:54:02;;;;;;;8.98;4.93;;;;;;;26.00;40.50;94355.84;5064888;28;20049;-72
2023/07/11 08:56:45;;;;;;;11.00;4.57;;;;;;;26.06;40.93;94367.13;5065203;28;20028;-72
2023/07/11 08:59:29;;;;;;;18.92;5.38;;;;;;;26.07;40.94;94367.91;5065168;28;20017;-71
2023/07/11 09:02:03;;;;;;;8.70;4.45;;;;;;;26.12;40.96;94360.06;5064927;28;20368;-71
2023/07/11 09:04:30;;;;;;;13.70;4.25;;;;;;;26.12;41.13;94362.78;5064716;28;20025;-72
2023/07/11 09:07:09;;;;;;;8.73;4.35;;;;;;;26.17;42.34;94351.44;5064943;28;20043;-72
2023/07/11 09:09:35;;;;;;;17.42;4.38;;;;;;;26.31;42.24;94349.78;5065195;28;20051;-71
2023/07/11 09:12:12;;;;;;;10.95;4.43;;;;;;;26.37;41.12;94353.63;5064534;28;20036;-72
2023/07/11 09:14:53;;;;;;;8.60;4.28;;;;;;;26.43;39.32;94352.03;5064698;28;20029;-72
2023/07/11 09:17:43;;;;;;;14.20;4.68;;;;;;;26.46;40.23;94348.50;5064536;28;20024;-72
2023/07/11 09:20:26;;;;;;;8.90;5.05;;;;;;;26.54;42.99;94363.66;5064717;28;20136;-73
2023/07/11 09:23:00;;;;;;;12.85;4.47;;;;;;;26.58;41.35;94352.69;5064593;28;20020;-73
2023/07/11 09:25:34;;;;;;;13.40;4.32;;;;;;;26.68;39.41;94345.59;5064436;28;20032;-73
2023/07/11 09:28:10;;;;;;;11.95;4.13;;;;;;;26.79;40.09;94354.50;5064387;28;20319;-74
2023/07/11 09:30:49;;;;;;;8.93;4.63;;;;;;;26.81;41.83;94350.16;5064450;28;20036;-73
2023/07/11 09:33:37;;;;;;;8.95;5.15;;;;;;;26.85;42.16;94350.13;5064411;28;20025;-73
2023/07/11 09:36:20;;;;;;;14.30;5.15;;;;;;;26.88;42.90;94360.25;5064200;28;20066;-73
2023/07/11 09:38:54;;;;;;;8.18;4.30;;;;;;;26.96;39.96;94356.25;5063968;28;20266;-73
2023/07/11 09:41:25;;;;;;;15.63;5.70;;;;;;;26.95;40.50;94351.22;5064108;28;20032;-72
2023/07/11 09:43:50;;;;;;;13.18;5.28;;;;;;;26.94;41.96;94352.38;5063906;28;20032;-73
2023/07/11 09:46:21;;;;;;;11.13;5.13;;;;;;;26.98;40.66;94345.69;5063912;28;20218;-73
2023/07/11 09:48:50;;;;;;;8.20;4.63;;;;;;;26.79;39.38;94341.59;5064158;28;20025;-75
2023/07/11 09:51:54;;;;;;;9.05;4.15;;;;;;;26.93;41.07;94346.16;5063921;28;20024;-75
2023/07/11 09:54:21;;;;;;;13.98;4.50;;;;;;;27.03;41.49;94339.00;5063852;28;20284;-78
2023/07/11 09:56:48;;;;;;;9.93;4.38;;;;;;;27.17;41.82;94349.00;5063988;28;20096;-76
2023/07/11 09:59:15;;;;;;;11.98;4.72;;;;;;;27.17;41.10;94343.53;5064192;28;20028;-75
2023/07/11 10:01:42;;;;;;;6.78;4.35;;;;;;;27.27;40.34;94345.41;5063905;28;20049;-75
2023/07/11 10:04:14;;;;;;;10.98;4.38;;;;;;;27.25;40.09;94342.28;5063903;28;20294;-75
2023/07/11 10:06:53;;;;;;;9.70;4.55;;;;;;;27.30;41.41;94330.16;5062393;28;20086;-77
2023/07/11 10:09:24;;;;;;;7.45;4.50;;;;;;;27.36;40.90;94340.22;5063832;28;20035;-76
2023/07/11 10:12:01;;;;;;;8.93;4.35;;;;;;;27.37;40.45;94325.34;5063699;28;20025;-76
2023/07/11 10:14:38;;;;;;;10.88;4.57;;;;;;;27.41;39.80;94317.84;5063732;28;20033;-76
2023/07/11 10:17:34;;;;;;;19.45;5.00;;;;;;;27.59;40.61;94336.03;5063660;28;20092;-75
2023/07/11 10:20:03;;;;;;;7.65;4.45;;;;;;;27.63;39.92;94325.81;5063045;28;20037;-76
2023/07/11 10:22:31;;;;;;;7.85;5.05;;;;;;;27.63;41.97;94325.81;5062339;28;20025;-76
2023/07/11 10:25:11;;;;;;;11.95;4.75;;;;;;;27.67;41.91;94337.50;5063405;28;20033;-76
2023/07/11 10:27:37;;;;;;;7.50;4.78;;;;;;;27.66;42.59;94333.22;5063090;28;20032;-77
2023/07/11 10:30:05;;;;;;;8.38;4.70;;;;;;;27.73;41.85;94327.63;5062277;28;20033;-76
2023/07/11 10:32:42;;;;;;;7.18;4.50;;;;;;;27.86;40.49;94338.03;5063272;28;20054;-75
2023/07/11 10:35:16;;;;;;;6.97;4.13;;;;;;;27.82;41.27;94329.84;5063297;28;20020;-75
2023/07/11 10:37:46;;;;;;;10.50;4.80;;;;;;;27.75;40.63;94327.22;5063225;28;20074;-75
2023/07/11 10:40:24;;;;;;;6.43;4.05;;;;;;;27.91;39.78;94324.69;5062986;28;20327;-75
2023/07/11 10:43:13;;;;;;;10.35;4.50;;;;;;;28.02;39.59;94321.78;5063196;28;20311;-75
2023/07/11 10:45:43;;;;;;;7.20;3.88;;;;;;;28.11;39.89;94324.78;5062708;28;20028;-74
2023/07/11 10:48:32;;;;;;;8.30;4.63;;;;;;;28.17;39.72;94308.63;5062076;28;20031;-76
2023/07/11 10:51:12;;;;;;;8.27;4.65;;;;;;;28.17;39.80;94320.38;5062506;28;20020;-75
2023/07/11 10:53:47;;;;;;;9.88;4.55;;;;;;;28.09;39.68;94312.66;5062713;28;20094;-74
2023/07/11 10:56:23;;;;;;;11.93;4.68;;;;;;;28.18;41.22;94313.69;5062997;28;20029;-82
2023/07/11 10:58:50;;;;;;;9.75;4.70;;;;;;;28.25;39.74;94306.56;5061670;28;20377;-81
2023/07/11 11:01:32;;;;;;;9.93;5.03;;;;;;;28.34;40.96;94315.03;5062828;28;20021;-74
2023/07/11 11:04:13;;;;;;;;;;;;;;;28.45;39.77;94310.13;5062216;28;20099;-73
2023/07/11 11:06:54;;;;;;;9.07;4.30;;;;;;;28.34;39.36;94312.28;5062871;28;19932;-73
2023/07/11 11:09:35;;;;;;;7.03;3.83;;;;;;;28.36;39.36;94304.44;5062805;28;20024;-72
2023/07/11 11:12:34;;;;;;;8.95;3.88;;;;;;;28.48;40.59;94301.09;5062866;28;20036;-74
2023/07/11 11:15:17;;;;;;;10.38;4.15;;;;;;;28.58;38.61;94300.16;5062805;28;20130;-74
2023/07/11 11:17:51;;;;;;;10.18;4.78;;;;;;;28.74;39.79;94298.69;5062857;28;20021;-75
2023/07/11 11:20:27;;;;;;;9.43;4.13;;;;;;;28.88;40.90;94297.66;5062739;28;20032;-74
2023/07/11 11:23:07;;;;;;;9.77;4.50;;;;;;;28.93;38.09;94302.69;5062613;28;20020;-74
2023/07/11 11:25:44;;;;;;;5.55;3.78;;;;;;;28.98;38.73;94289.25;5062992;28;20047;-74
2023/07/11 11:28:31;;;;;;;6.72;4.53;;;;;;;28.94;39.60;94288.56;5062376;28;20048;-75
2023/07/11 11:31:18;;;;;;;9.80;4.40;;;;;;;29.05;38.87;94282.84;5062446;28;20301;-74
2023/07/11 11:34:06;;;;;;;8.73;4.57;;;;;;;29.19;37.19;94288.09;5062689;28;20025;-73
2023/07/11 11:36:46;;;;;;;9.98;4.28;;;;;;;29.18;36.87;94292.00;5061555;28;20036;-73
2023/07/11 11:40:03;;;;;;;8.13;4.15;;;;;;;29.19;37.59;94281.81;5062424;28;20366;-72